LWOH Airport Information

Runway Information
Runway 02 Length 8366 ft width 140 ft
Elevation 2284 ft Threshold 0 ft Heading 18
Runway 20 Length 8366 ft Width 140 ft
Elevation 2313 ft Threshold 0 ft Heading 198
Airport Frequencies
Type APP Name APP Frequency 119.2 MHZ
Type TWR Name TWR Frequency 119.2 MHZ
Airport Navaids
Type NDB Name Ohrid Frequency 432 KHZ
Type VOR-DME Name Ohrid Frequency 112500 KHZ
Airport Weather Information & NOTAM
ADDS - METARS form results

(1225 UTC 24 January 2019)
Data provider http://aviationweather.gov/metar/data/
 
METAR text: LWOH 241200Z 20002KT 9999 FEW030 BKN160 05/01 Q0995
Conditions at: LWOH (OHRID , MK) observed 1200 UTC 24 January 2019
Temperature: 5.0°C (41°F)
Dewpoint: 1.0°C (34°F) [RH = 75%]
Pressure (altimeter): 29.38 inches Hg (995.0 mb)
Winds: from the SSW (200 degrees) at 2 MPH (2 knots; 1.0 m/s)
Visibility: 6 or more miles (10+ km)
Ceiling: 16000 feet AGL
Clouds: few clouds at 3000 feet AGL
broken clouds at 16000 feet AGL
Weather: no significant weather observed at this time

METAR text: LWOH 241130Z VRB01KT 9999 FEW030 SCT160 06/01 Q0995
Conditions at: LWOH (OHRID , MK) observed 1130 UTC 24 January 2019
Temperature: 6.0°C (43°F)
Dewpoint: 1.0°C (34°F) [RH = 70%]
Pressure (altimeter): 29.38 inches Hg (995.0 mb)
Winds: variable direction winds at 1 MPH (1 knots; 0.5 m/s)
Visibility: 6 or more miles (10+ km)
Ceiling: at least 12,000 feet AGL
Clouds: few clouds at 3000 feet AGL
scattered clouds at 16000 feet AGL
Weather: no significant weather observed at this time

Forecast for: LWOH (OHRID , MK)
Text: TAF LWOH 241130Z 2412/2512 VRB02KT 9999 FEW030
Forecast period: 1200 to 2100 UTC 24 January 2019
Forecast type: FROM: standard forecast or significant change
Winds: variable direction winds at 2 MPH (2 knots; 1.0 m/s)
Visibility: 6 or more miles 10+ km)
Ceiling: at least 12,000 feet AGL
Clouds: few clouds at 3000 feet AGL
Weather: no significant weather forecast for this period
Text: BECMG 2421/2423 5000 SN SCT015 OVC030
Forecast period: 2100 UTC 24 January 2019 to 1200 UTC 25 January 2019
Forecast type: BECOMING: Conditions expected to become as follows by 2300 UTC 24 January 2019
Winds: variable direction winds at 2 MPH (2 knots; 1.0 m/s)
Visibility: 3 miles (5 km)
Ceiling: 3000 feet AGL
Clouds: scattered clouds at 1500 feet AGL
overcast cloud deck at 3000 feet AGL
Weather: SN  (moderate snow)